sensor_id;sensor_type;location;lat;lon;timestamp;P1;durP1;ratioP1;P2;durP2;ratioP2
321;SDS011;148;51.480;7.208;2022-08-21T00:01:55;14.13;;;6.93;;
321;SDS011;148;51.480;7.208;2022-08-21T00:04:21;17.83;;;6.50;;
321;SDS011;148;51.480;7.208;2022-08-21T00:06:47;14.67;;;6.20;;
321;SDS011;148;51.480;7.208;2022-08-21T00:09:13;12.03;;;5.90;;
321;SDS011;148;51.480;7.208;2022-08-21T00:11:40;10.53;;;5.50;;
321;SDS011;148;51.480;7.208;2022-08-21T00:14:06;13.77;;;6.00;;
321;SDS011;148;51.480;7.208;2022-08-21T00:16:33;14.63;;;7.33;;
321;SDS011;148;51.480;7.208;2022-08-21T00:18:59;15.13;;;6.40;;
321;SDS011;148;51.480;7.208;2022-08-21T00:21:25;16.43;;;6.30;;
321;SDS011;148;51.480;7.208;2022-08-21T00:23:51;14.13;;;6.50;;
321;SDS011;148;51.480;7.208;2022-08-21T00:26:17;16.27;;;7.50;;
321;SDS011;148;51.480;7.208;2022-08-21T00:28:42;12.50;;;5.97;;
321;SDS011;148;51.480;7.208;2022-08-21T00:31:10;15.17;;;7.30;;
321;SDS011;148;51.480;7.208;2022-08-21T00:33:36;18.47;;;7.67;;
321;SDS011;148;51.480;7.208;2022-08-21T00:36:02;16.23;;;7.33;;
321;SDS011;148;51.480;7.208;2022-08-21T00:38:28;12.40;;;6.77;;
321;SDS011;148;51.480;7.208;2022-08-21T00:40:55;13.80;;;6.97;;
321;SDS011;148;51.480;7.208;2022-08-21T00:43:24;12.97;;;6.63;;
321;SDS011;148;51.480;7.208;2022-08-21T00:45:53;21.90;;;7.10;;
321;SDS011;148;51.480;7.208;2022-08-21T00:48:20;16.90;;;6.43;;
321;SDS011;148;51.480;7.208;2022-08-21T00:50:57;15.37;;;6.53;;
321;SDS011;148;51.480;7.208;2022-08-21T00:53:25;13.07;;;6.60;;
321;SDS011;148;51.480;7.208;2022-08-21T00:55:52;13.20;;;7.13;;
321;SDS011;148;51.480;7.208;2022-08-21T00:58:19;21.00;;;8.00;;
321;SDS011;148;51.480;7.208;2022-08-21T01:00:46;12.10;;;6.73;;
321;SDS011;148;51.480;7.208;2022-08-21T01:03:15;11.73;;;6.70;;
321;SDS011;148;51.480;7.208;2022-08-21T01:05:43;11.30;;;6.00;;
321;SDS011;148;51.480;7.208;2022-08-21T01:08:11;28.77;;;6.90;;
321;SDS011;148;51.480;7.208;2022-08-21T01:10:38;16.40;;;6.77;;
321;SDS011;148;51.480;7.208;2022-08-21T01:13:06;9.90;;;6.23;;
321;SDS011;148;51.480;7.208;2022-08-21T01:15:36;14.43;;;6.50;;
321;SDS011;148;51.480;7.208;2022-08-21T01:18:07;17.30;;;7.43;;
321;SDS011;148;51.480;7.208;2022-08-21T01:20:36;13.10;;;6.60;;
321;SDS011;148;51.480;7.208;2022-08-21T01:23:04;13.00;;;7.10;;
321;SDS011;148;51.480;7.208;2022-08-21T01:25:31;14.00;;;6.43;;
321;SDS011;148;51.480;7.208;2022-08-21T01:27:59;15.67;;;7.03;;
321;SDS011;148;51.480;7.208;2022-08-21T01:30:31;13.80;;;6.20;;
321;SDS011;148;51.480;7.208;2022-08-21T01:33:00;11.83;;;6.83;;
321;SDS011;148;51.480;7.208;2022-08-21T01:35:25;10.90;;;5.53;;
321;SDS011;148;51.480;7.208;2022-08-21T01:37:51;18.60;;;7.70;;
321;SDS011;148;51.480;7.208;2022-08-21T01:40:17;13.47;;;6.23;;
321;SDS011;148;51.480;7.208;2022-08-21T01:42:43;10.73;;;6.37;;
321;SDS011;148;51.480;7.208;2022-08-21T01:45:10;20.77;;;7.67;;
321;SDS011;148;51.480;7.208;2022-08-21T01:47:37;16.80;;;6.47;;
321;SDS011;148;51.480;7.208;2022-08-21T01:50:04;16.60;;;6.90;;
321;SDS011;148;51.480;7.208;2022-08-21T01:52:34;13.43;;;7.13;;
321;SDS011;148;51.480;7.208;2022-08-21T01:54:59;14.03;;;7.00;;
321;SDS011;148;51.480;7.208;2022-08-21T01:57:25;12.17;;;6.70;;
321;SDS011;148;51.480;7.208;2022-08-21T01:59:51;20.13;;;6.67;;
321;SDS011;148;51.480;7.208;2022-08-21T02:02:17;13.10;;;6.80;;
321;SDS011;148;51.480;7.208;2022-08-21T02:04:42;9.20;;;6.30;;
321;SDS011;148;51.480;7.208;2022-08-21T02:07:08;11.70;;;6.83;;
321;SDS011;148;51.480;7.208;2022-08-21T02:09:34;10.37;;;6.40;;
321;SDS011;148;51.480;7.208;2022-08-21T02:12:00;17.00;;;6.80;;
321;SDS011;148;51.480;7.208;2022-08-21T02:14:25;11.90;;;7.30;;
321;SDS011;148;51.480;7.208;2022-08-21T02:16:51;14.60;;;6.70;;
321;SDS011;148;51.480;7.208;2022-08-21T02:19:18;15.47;;;7.97;;
321;SDS011;148;51.480;7.208;2022-08-21T02:21:43;17.93;;;7.50;;
321;SDS011;148;51.480;7.208;2022-08-21T02:24:09;13.67;;;7.57;;
321;SDS011;148;51.480;7.208;2022-08-21T02:26:36;11.93;;;6.27;;
321;SDS011;148;51.480;7.208;2022-08-21T02:29:02;20.53;;;7.20;;
321;SDS011;148;51.480;7.208;2022-08-21T02:31:28;16.07;;;7.57;;
321;SDS011;148;51.480;7.208;2022-08-21T02:33:54;11.80;;;7.43;;
321;SDS011;148;51.480;7.208;2022-08-21T02:36:19;16.90;;;7.57;;
321;SDS011;148;51.480;7.208;2022-08-21T02:38:45;17.93;;;7.00;;
321;SDS011;148;51.480;7.208;2022-08-21T02:41:12;23.97;;;8.50;;
321;SDS011;148;51.480;7.208;2022-08-21T02:43:39;15.00;;;7.40;;
321;SDS011;148;51.480;7.208;2022-08-21T02:46:06;14.40;;;6.50;;
321;SDS011;148;51.480;7.208;2022-08-21T02:48:33;10.40;;;6.83;;
321;SDS011;148;51.480;7.208;2022-08-21T02:51:00;15.10;;;7.00;;
321;SDS011;148;51.480;7.208;2022-08-21T02:53:31;17.77;;;6.77;;
321;SDS011;148;51.480;7.208;2022-08-21T02:55:59;12.33;;;7.30;;
321;SDS011;148;51.480;7.208;2022-08-21T02:58:30;14.27;;;7.57;;
321;SDS011;148;51.480;7.208;2022-08-21T03:00:58;14.97;;;6.40;;
321;SDS011;148;51.480;7.208;2022-08-21T03:03:24;17.73;;;7.13;;
321;SDS011;148;51.480;7.208;2022-08-21T03:05:51;13.77;;;6.60;;
321;SDS011;148;51.480;7.208;2022-08-21T03:08:17;12.80;;;6.73;;
321;SDS011;148;51.480;7.208;2022-08-21T03:10:45;14.23;;;6.83;;
321;SDS011;148;51.480;7.208;2022-08-21T03:13:13;18.50;;;6.97;;
321;SDS011;148;51.480;7.208;2022-08-21T03:15:39;13.13;;;6.83;;
321;SDS011;148;51.480;7.208;2022-08-21T03:18:06;17.07;;;7.20;;
321;SDS011;148;51.480;7.208;2022-08-21T03:20:33;13.90;;;7.37;;
321;SDS011;148;51.480;7.208;2022-08-21T03:22:59;14.03;;;6.70;;
321;SDS011;148;51.480;7.208;2022-08-21T03:25:27;13.10;;;7.40;;
321;SDS011;148;51.480;7.208;2022-08-21T03:27:53;13.00;;;7.60;;
321;SDS011;148;51.480;7.208;2022-08-21T03:30:19;20.17;;;7.47;;
321;SDS011;148;51.480;7.208;2022-08-21T03:32:47;13.60;;;7.83;;
321;SDS011;148;51.480;7.208;2022-08-21T03:35:13;12.40;;;6.87;;
321;SDS011;148;51.480;7.208;2022-08-21T03:37:40;16.43;;;7.37;;
321;SDS011;148;51.480;7.208;2022-08-21T03:40:06;11.80;;;6.33;;
321;SDS011;148;51.480;7.208;2022-08-21T03:42:34;14.10;;;8.23;;
321;SDS011;148;51.480;7.208;2022-08-21T03:45:00;15.40;;;7.47;;
321;SDS011;148;51.480;7.208;2022-08-21T03:47:26;16.97;;;6.97;;
321;SDS011;148;51.480;7.208;2022-08-21T03:49:52;17.30;;;7.77;;
321;SDS011;148;51.480;7.208;2022-08-21T03:52:17;10.80;;;6.90;;
321;SDS011;148;51.480;7.208;2022-08-21T03:54:44;13.77;;;6.93;;
321;SDS011;148;51.480;7.208;2022-08-21T03:57:10;15.07;;;6.97;;
321;SDS011;148;51.480;7.208;2022-08-21T03:59:36;13.67;;;6.47;;
321;SDS011;148;51.480;7.208;2022-08-21T04:02:04;18.30;;;8.00;;
321;SDS011;148;51.480;7.208;2022-08-21T04:04:31;13.77;;;8.00;;
321;SDS011;148;51.480;7.208;2022-08-21T04:06:57;12.73;;;7.90;;
321;SDS011;148;51.480;7.208;2022-08-21T04:09:24;13.10;;;6.60;;
321;SDS011;148;51.480;7.208;2022-08-21T06:32:57;24.50;;;12.67;;
321;SDS011;148;51.480;7.208;2022-08-21T06:35:23;21.00;;;11.63;;
321;SDS011;148;51.480;7.208;2022-08-21T06:37:53;18.33;;;10.67;;
321;SDS011;148;51.480;7.208;2022-08-21T06:40:19;24.20;;;12.00;;
321;SDS011;148;51.480;7.208;2022-08-21T06:42:45;26.13;;;11.10;;
321;SDS011;148;51.480;7.208;2022-08-21T06:45:10;18.43;;;11.40;;
321;SDS011;148;51.480;7.208;2022-08-21T06:47:36;25.80;;;12.47;;
321;SDS011;148;51.480;7.208;2022-08-21T06:50:02;24.17;;;11.53;;
321;SDS011;148;51.480;7.208;2022-08-21T06:52:29;17.27;;;10.27;;
321;SDS011;148;51.480;7.208;2022-08-21T06:54:55;25.00;;;13.00;;
321;SDS011;148;51.480;7.208;2022-08-21T06:57:21;17.70;;;10.40;;
321;SDS011;148;51.480;7.208;2022-08-21T06:59:47;28.00;;;12.10;;
321;SDS011;148;51.480;7.208;2022-08-21T07:02:12;24.30;;;9.80;;
321;SDS011;148;51.480;7.208;2022-08-21T07:04:38;20.53;;;10.93;;
321;SDS011;148;51.480;7.208;2022-08-21T07:07:03;17.77;;;11.30;;
321;SDS011;148;51.480;7.208;2022-08-21T07:09:29;20.77;;;10.60;;
321;SDS011;148;51.480;7.208;2022-08-21T07:11:55;23.20;;;11.20;;
321;SDS011;148;51.480;7.208;2022-08-21T07:14:22;20.33;;;11.13;;
321;SDS011;148;51.480;7.208;2022-08-21T07:16:48;26.00;;;10.93;;
321;SDS011;148;51.480;7.208;2022-08-21T07:19:14;17.90;;;10.70;;
321;SDS011;148;51.480;7.208;2022-08-21T07:21:40;26.60;;;12.10;;
321;SDS011;148;51.480;7.208;2022-08-21T07:24:05;19.00;;;10.87;;
321;SDS011;148;51.480;7.208;2022-08-21T07:26:31;29.37;;;11.33;;
321;SDS011;148;51.480;7.208;2022-08-21T07:28:57;23.20;;;11.43;;
321;SDS011;148;51.480;7.208;2022-08-21T07:31:23;32.67;;;10.87;;
321;SDS011;148;51.480;7.208;2022-08-21T07:33:50;21.50;;;10.33;;
321;SDS011;148;51.480;7.208;2022-08-21T07:36:16;20.50;;;10.00;;
321;SDS011;148;51.480;7.208;2022-08-21T07:38:42;17.93;;;9.27;;
321;SDS011;148;51.480;7.208;2022-08-21T07:41:18;20.37;;;8.70;;
321;SDS011;148;51.480;7.208;2022-08-21T07:43:46;16.40;;;8.50;;
321;SDS011;148;51.480;7.208;2022-08-21T07:46:12;38.90;;;7.93;;
321;SDS011;148;51.480;7.208;2022-08-21T07:48:38;13.97;;;6.63;;
321;SDS011;148;51.480;7.208;2022-08-21T07:51:08;15.97;;;5.70;;
321;SDS011;148;51.480;7.208;2022-08-21T07:53:36;13.47;;;5.90;;
321;SDS011;148;51.480;7.208;2022-08-21T07:56:03;12.90;;;6.17;;
321;SDS011;148;51.480;7.208;2022-08-21T07:58:30;8.43;;;4.80;;
321;SDS011;148;51.480;7.208;2022-08-21T08:00:56;16.57;;;6.43;;
321;SDS011;148;51.480;7.208;2022-08-21T08:03:22;11.30;;;5.63;;
321;SDS011;148;51.480;7.208;2022-08-21T08:05:49;13.90;;;5.60;;
321;SDS011;148;51.480;7.208;2022-08-21T08:08:15;17.63;;;6.70;;
321;SDS011;148;51.480;7.208;2022-08-21T08:10:41;12.53;;;5.40;;
321;SDS011;148;51.480;7.208;2022-08-21T08:13:07;8.20;;;4.60;;
321;SDS011;148;51.480;7.208;2022-08-21T08:15:33;11.47;;;5.30;;
321;SDS011;148;51.480;7.208;2022-08-21T08:17:59;12.33;;;5.43;;
321;SDS011;148;51.480;7.208;2022-08-21T08:20:25;17.33;;;6.10;;
321;SDS011;148;51.480;7.208;2022-08-21T08:22:51;15.73;;;5.00;;
321;SDS011;148;51.480;7.208;2022-08-21T08:25:18;13.93;;;5.00;;
321;SDS011;148;51.480;7.208;2022-08-21T08:27:45;12.53;;;5.40;;
321;SDS011;148;51.480;7.208;2022-08-21T08:30:12;15.00;;;4.60;;
321;SDS011;148;51.480;7.208;2022-08-21T08:32:39;12.47;;;4.70;;
321;SDS011;148;51.480;7.208;2022-08-21T08:35:05;10.10;;;4.90;;
321;SDS011;148;51.480;7.208;2022-08-21T08:37:32;19.00;;;5.30;;
321;SDS011;148;51.480;7.208;2022-08-21T08:39:58;14.53;;;6.23;;
321;SDS011;148;51.480;7.208;2022-08-21T08:42:30;14.87;;;4.60;;
321;SDS011;148;51.480;7.208;2022-08-21T08:45:20;12.93;;;4.93;;
321;SDS011;148;51.480;7.208;2022-08-21T08:47:47;14.80;;;4.30;;
321;SDS011;148;51.480;7.208;2022-08-21T08:53:36;11.67;;;4.20;;
321;SDS011;148;51.480;7.208;2022-08-21T08:56:07;18.17;;;5.50;;
321;SDS011;148;51.480;7.208;2022-08-21T08:58:34;17.70;;;5.90;;
321;SDS011;148;51.480;7.208;2022-08-21T09:01:05;14.60;;;5.60;;
321;SDS011;148;51.480;7.208;2022-08-21T09:03:42;8.60;;;5.03;;
321;SDS011;148;51.480;7.208;2022-08-21T09:11:48;13.57;;;5.13;;
321;SDS011;148;51.480;7.208;2022-08-21T09:14:25;10.07;;;4.53;;
321;SDS011;148;51.480;7.208;2022-08-21T09:20:22;9.73;;;4.40;;
321;SDS011;148;51.480;7.208;2022-08-21T09:23:11;15.93;;;4.07;;
321;SDS011;148;51.480;7.208;2022-08-21T09:28:25;23.50;;;4.67;;
321;SDS011;148;51.480;7.208;2022-08-21T09:30:51;9.33;;;3.80;;
321;SDS011;148;51.480;7.208;2022-08-21T09:33:20;20.37;;;4.50;;
321;SDS011;148;51.480;7.208;2022-08-21T09:35:47;11.13;;;4.60;;
321;SDS011;148;51.480;7.208;2022-08-21T09:38:29;14.10;;;4.13;;
321;SDS011;148;51.480;7.208;2022-08-21T09:41:08;9.93;;;4.20;;
321;SDS011;148;51.480;7.208;2022-08-21T09:43:36;11.27;;;4.80;;
321;SDS011;148;51.480;7.208;2022-08-21T09:46:19;8.23;;;4.57;;
321;SDS011;148;51.480;7.208;2022-08-21T09:48:47;8.43;;;3.90;;
321;SDS011;148;51.480;7.208;2022-08-21T09:51:19;9.63;;;3.80;;
321;SDS011;148;51.480;7.208;2022-08-21T09:53:48;12.13;;;4.10;;
321;SDS011;148;51.480;7.208;2022-08-21T09:56:21;7.53;;;3.87;;
321;SDS011;148;51.480;7.208;2022-08-21T09:59:29;12.30;;;4.90;;
321;SDS011;148;51.480;7.208;2022-08-21T10:01:57;11.60;;;4.20;;
321;SDS011;148;51.480;7.208;2022-08-21T10:04:41;11.50;;;4.00;;
321;SDS011;148;51.480;7.208;2022-08-21T10:07:19;10.00;;;4.77;;
321;SDS011;148;51.480;7.208;2022-08-21T10:09:46;13.27;;;5.60;;
321;SDS011;148;51.480;7.208;2022-08-21T10:12:24;14.83;;;4.00;;
321;SDS011;148;51.480;7.208;2022-08-21T10:17:48;11.03;;;3.87;;
321;SDS011;148;51.480;7.208;2022-08-21T10:20:31;6.50;;;3.40;;
321;SDS011;148;51.480;7.208;2022-08-21T10:26:07;7.57;;;3.83;;
321;SDS011;148;51.480;7.208;2022-08-21T10:28:50;14.57;;;4.37;;
321;SDS011;148;51.480;7.208;2022-08-21T10:34:24;13.27;;;4.07;;
321;SDS011;148;51.480;7.208;2022-08-21T10:48:29;5.10;;;2.73;;
321;SDS011;148;51.480;7.208;2022-08-21T10:54:12;8.10;;;3.23;;
321;SDS011;148;51.480;7.208;2022-08-21T10:57:03;6.13;;;2.97;;
321;SDS011;148;51.480;7.208;2022-08-21T10:59:38;7.57;;;3.10;;
321;SDS011;148;51.480;7.208;2022-08-21T11:02:30;8.80;;;3.03;;
321;SDS011;148;51.480;7.208;2022-08-21T11:05:01;5.60;;;2.57;;
321;SDS011;148;51.480;7.208;2022-08-21T11:07:53;8.27;;;3.07;;
321;SDS011;148;51.480;7.208;2022-08-21T11:10:26;5.73;;;3.10;;
321;SDS011;148;51.480;7.208;2022-08-21T11:13:00;5.70;;;2.83;;
321;SDS011;148;51.480;7.208;2022-08-21T11:15:43;4.13;;;2.80;;
321;SDS011;148;51.480;7.208;2022-08-21T11:18:24;8.37;;;3.27;;
321;SDS011;148;51.480;7.208;2022-08-21T11:21:06;4.73;;;3.10;;
321;SDS011;148;51.480;7.208;2022-08-21T11:23:39;6.07;;;3.13;;
321;SDS011;148;51.480;7.208;2022-08-21T11:26:17;7.63;;;3.07;;
321;SDS011;148;51.480;7.208;2022-08-21T11:28:59;3.97;;;2.70;;
321;SDS011;148;51.480;7.208;2022-08-21T11:31:36;9.60;;;3.00;;
321;SDS011;148;51.480;7.208;2022-08-21T11:37:05;4.83;;;2.70;;
321;SDS011;148;51.480;7.208;2022-08-21T11:39:56;4.77;;;2.50;;
321;SDS011;148;51.480;7.208;2022-08-21T11:50:45;4.57;;;2.50;;
321;SDS011;148;51.480;7.208;2022-08-21T11:53:13;8.43;;;3.57;;
321;SDS011;148;51.480;7.208;2022-08-21T11:58:45;6.20;;;2.57;;
321;SDS011;148;51.480;7.208;2022-08-21T12:01:16;5.10;;;2.60;;
321;SDS011;148;51.480;7.208;2022-08-21T12:03:52;3.90;;;2.43;;
321;SDS011;148;51.480;7.208;2022-08-21T12:06:37;5.40;;;3.13;;
321;SDS011;148;51.480;7.208;2022-08-21T12:11:50;4.80;;;2.40;;
321;SDS011;148;51.480;7.208;2022-08-21T12:14:35;8.80;;;2.47;;
321;SDS011;148;51.480;7.208;2022-08-21T12:17:17;6.50;;;2.60;;
321;SDS011;148;51.480;7.208;2022-08-21T12:19:44;5.10;;;2.53;;
321;SDS011;148;51.480;7.208;2022-08-21T12:22:21;7.30;;;2.90;;
321;SDS011;148;51.480;7.208;2022-08-21T12:24:50;5.60;;;2.73;;
321;SDS011;148;51.480;7.208;2022-08-21T12:32:45;6.20;;;2.73;;
321;SDS011;148;51.480;7.208;2022-08-21T12:35:15;7.70;;;2.80;;
321;SDS011;148;51.480;7.208;2022-08-21T12:37:57;4.33;;;2.80;;
321;SDS011;148;51.480;7.208;2022-08-21T12:40:30;7.20;;;3.40;;
321;SDS011;148;51.480;7.208;2022-08-21T12:43:11;5.57;;;2.77;;
321;SDS011;148;51.480;7.208;2022-08-21T12:45:43;5.97;;;2.60;;
321;SDS011;148;51.480;7.208;2022-08-21T12:56:18;4.00;;;2.40;;
321;SDS011;148;51.480;7.208;2022-08-21T12:58:50;6.40;;;2.80;;
321;SDS011;148;51.480;7.208;2022-08-21T13:01:28;7.60;;;2.93;;
321;SDS011;148;51.480;7.208;2022-08-21T13:03:57;4.10;;;2.40;;
321;SDS011;148;51.480;7.208;2022-08-21T13:06:25;3.80;;;2.30;;
321;SDS011;148;51.480;7.208;2022-08-21T13:08:57;7.50;;;2.37;;
321;SDS011;148;51.480;7.208;2022-08-21T13:11:29;6.53;;;2.60;;
321;SDS011;148;51.480;7.208;2022-08-21T13:13:56;5.13;;;2.80;;
321;SDS011;148;51.480;7.208;2022-08-21T13:16:24;6.33;;;2.20;;
321;SDS011;148;51.480;7.208;2022-08-21T13:18:55;3.03;;;2.07;;
321;SDS011;148;51.480;7.208;2022-08-21T13:26:46;4.37;;;2.73;;
321;SDS011;148;51.480;7.208;2022-08-21T13:29:13;7.97;;;2.60;;
321;SDS011;148;51.480;7.208;2022-08-21T13:31:45;6.33;;;2.57;;
321;SDS011;148;51.480;7.208;2022-08-21T13:34:17;4.47;;;2.80;;
321;SDS011;148;51.480;7.208;2022-08-21T13:36:44;3.90;;;2.70;;
321;SDS011;148;51.480;7.208;2022-08-21T13:39:12;4.23;;;3.00;;
321;SDS011;148;51.480;7.208;2022-08-21T13:41:41;5.63;;;2.90;;
321;SDS011;148;51.480;7.208;2022-08-21T13:44:16;5.13;;;2.87;;
321;SDS011;148;51.480;7.208;2022-08-21T13:46:47;9.13;;;3.30;;
321;SDS011;148;51.480;7.208;2022-08-21T13:49:15;7.27;;;2.77;;
321;SDS011;148;51.480;7.208;2022-08-21T13:51:44;5.30;;;3.10;;
321;SDS011;148;51.480;7.208;2022-08-21T13:54:34;5.73;;;2.50;;
321;SDS011;148;51.480;7.208;2022-08-21T13:57:02;7.70;;;2.77;;
321;SDS011;148;51.480;7.208;2022-08-21T13:59:32;4.47;;;2.90;;
321;SDS011;148;51.480;7.208;2022-08-21T14:02:19;3.70;;;2.70;;
321;SDS011;148;51.480;7.208;2022-08-21T14:04:51;7.90;;;3.10;;
321;SDS011;148;51.480;7.208;2022-08-21T14:07:25;4.37;;;2.60;;
321;SDS011;148;51.480;7.208;2022-08-21T14:09:52;7.10;;;2.90;;
321;SDS011;148;51.480;7.208;2022-08-21T14:12:24;4.23;;;3.00;;
321;SDS011;148;51.480;7.208;2022-08-21T14:15:03;9.53;;;4.07;;
321;SDS011;148;51.480;7.208;2022-08-21T14:17:35;3.77;;;2.60;;
321;SDS011;148;51.480;7.208;2022-08-21T14:20:07;6.37;;;3.13;;
321;SDS011;148;51.480;7.208;2022-08-21T14:28:12;6.30;;;3.00;;
321;SDS011;148;51.480;7.208;2022-08-21T14:30:40;4.57;;;2.47;;
321;SDS011;148;51.480;7.208;2022-08-21T14:33:09;8.20;;;3.00;;
321;SDS011;148;51.480;7.208;2022-08-21T14:35:39;4.07;;;2.60;;
321;SDS011;148;51.480;7.208;2022-08-21T14:38:39;5.17;;;2.77;;
321;SDS011;148;51.480;7.208;2022-08-21T14:41:02;9.17;;;3.23;;
321;SDS011;148;51.480;7.208;2022-08-21T14:43:33;7.73;;;3.03;;
321;SDS011;148;51.480;7.208;2022-08-21T14:45:59;6.40;;;3.27;;
321;SDS011;148;51.480;7.208;2022-08-21T14:48:26;9.80;;;3.40;;
321;SDS011;148;51.480;7.208;2022-08-21T14:50:52;9.07;;;3.60;;
321;SDS011;148;51.480;7.208;2022-08-21T14:53:18;5.93;;;2.80;;
321;SDS011;148;51.480;7.208;2022-08-21T14:55:46;3.43;;;2.73;;
321;SDS011;148;51.480;7.208;2022-08-21T14:58:31;3.60;;;2.50;;
321;SDS011;148;51.480;7.208;2022-08-21T15:01:02;6.30;;;2.77;;
321;SDS011;148;51.480;7.208;2022-08-21T15:03:36;4.67;;;2.70;;
321;SDS011;148;51.480;7.208;2022-08-21T15:06:06;6.17;;;2.87;;
321;SDS011;148;51.480;7.208;2022-08-21T15:08:32;7.93;;;2.90;;
321;SDS011;148;51.480;7.208;2022-08-21T15:10:58;5.10;;;2.47;;
321;SDS011;148;51.480;7.208;2022-08-21T15:13:26;4.50;;;3.17;;
321;SDS011;148;51.480;7.208;2022-08-21T15:15:52;10.67;;;4.20;;
321;SDS011;148;51.480;7.208;2022-08-21T15:18:19;5.10;;;2.70;;
321;SDS011;148;51.480;7.208;2022-08-21T15:20:45;4.70;;;2.67;;
321;SDS011;148;51.480;7.208;2022-08-21T15:23:11;5.70;;;2.43;;
321;SDS011;148;51.480;7.208;2022-08-21T15:25:39;6.30;;;3.07;;
321;SDS011;148;51.480;7.208;2022-08-21T15:28:07;5.33;;;3.27;;
321;SDS011;148;51.480;7.208;2022-08-21T15:30:33;8.33;;;2.80;;
321;SDS011;148;51.480;7.208;2022-08-21T15:32:59;4.57;;;2.80;;
321;SDS011;148;51.480;7.208;2022-08-21T15:35:24;6.73;;;2.70;;
321;SDS011;148;51.480;7.208;2022-08-21T15:37:53;7.67;;;3.00;;
321;SDS011;148;51.480;7.208;2022-08-21T15:40:19;4.60;;;3.20;;
321;SDS011;148;51.480;7.208;2022-08-21T15:42:45;7.83;;;3.30;;
321;SDS011;148;51.480;7.208;2022-08-21T15:45:11;6.67;;;3.23;;
321;SDS011;148;51.480;7.208;2022-08-21T15:47:38;10.10;;;3.63;;
321;SDS011;148;51.480;7.208;2022-08-21T15:50:09;12.17;;;4.00;;
321;SDS011;148;51.480;7.208;2022-08-21T15:52:36;9.23;;;3.10;;
321;SDS011;148;51.480;7.208;2022-08-21T15:55:02;8.93;;;3.40;;
321;SDS011;148;51.480;7.208;2022-08-21T15:57:30;7.20;;;3.43;;
321;SDS011;148;51.480;7.208;2022-08-21T16:00:00;7.80;;;3.20;;
321;SDS011;148;51.480;7.208;2022-08-21T16:02:36;5.83;;;3.07;;
321;SDS011;148;51.480;7.208;2022-08-21T16:05:02;7.93;;;3.80;;
321;SDS011;148;51.480;7.208;2022-08-21T16:07:28;6.63;;;3.10;;
321;SDS011;148;51.480;7.208;2022-08-21T16:09:54;5.63;;;3.03;;
321;SDS011;148;51.480;7.208;2022-08-21T16:12:24;5.17;;;2.87;;
321;SDS011;148;51.480;7.208;2022-08-21T16:14:58;4.17;;;2.63;;
321;SDS011;148;51.480;7.208;2022-08-21T16:17:27;7.03;;;3.20;;
321;SDS011;148;51.480;7.208;2022-08-21T16:19:55;7.73;;;3.67;;
321;SDS011;148;51.480;7.208;2022-08-21T16:22:21;6.20;;;3.00;;
321;SDS011;148;51.480;7.208;2022-08-21T16:24:47;10.50;;;3.50;;
321;SDS011;148;51.480;7.208;2022-08-21T16:27:13;7.90;;;3.17;;
321;SDS011;148;51.480;7.208;2022-08-21T16:29:41;12.40;;;3.40;;
321;SDS011;148;51.480;7.208;2022-08-21T16:32:08;7.17;;;3.43;;
321;SDS011;148;51.480;7.208;2022-08-21T16:34:34;6.33;;;3.40;;
321;SDS011;148;51.480;7.208;2022-08-21T16:37:00;6.03;;;3.10;;
321;SDS011;148;51.480;7.208;2022-08-21T16:39:26;7.40;;;3.03;;
321;SDS011;148;51.480;7.208;2022-08-21T16:41:52;5.67;;;3.37;;
321;SDS011;148;51.480;7.208;2022-08-21T16:44:18;8.00;;;3.03;;
321;SDS011;148;51.480;7.208;2022-08-21T16:46:46;4.83;;;2.77;;
321;SDS011;148;51.480;7.208;2022-08-21T16:49:13;9.07;;;3.50;;
321;SDS011;148;51.480;7.208;2022-08-21T16:51:39;12.57;;;3.57;;
321;SDS011;148;51.480;7.208;2022-08-21T16:54:05;12.93;;;3.97;;
321;SDS011;148;51.480;7.208;2022-08-21T16:56:31;10.20;;;3.40;;
321;SDS011;148;51.480;7.208;2022-08-21T16:58:57;8.80;;;3.07;;
321;SDS011;148;51.480;7.208;2022-08-21T17:01:25;6.20;;;3.03;;
321;SDS011;148;51.480;7.208;2022-08-21T17:03:54;7.20;;;3.20;;
321;SDS011;148;51.480;7.208;2022-08-21T17:06:20;3.57;;;2.57;;
321;SDS011;148;51.480;7.208;2022-08-21T17:08:47;6.87;;;2.87;;
321;SDS011;148;51.480;7.208;2022-08-21T17:11:24;5.10;;;2.83;;
321;SDS011;148;51.480;7.208;2022-08-21T17:14:03;5.30;;;3.10;;
321;SDS011;148;51.480;7.208;2022-08-21T17:16:55;6.77;;;3.00;;
321;SDS011;148;51.480;7.208;2022-08-21T17:19:21;7.53;;;3.50;;
321;SDS011;148;51.480;7.208;2022-08-21T17:21:47;9.23;;;3.20;;
321;SDS011;148;51.480;7.208;2022-08-21T17:24:13;9.00;;;3.43;;
321;SDS011;148;51.480;7.208;2022-08-21T17:26:39;5.97;;;2.97;;
321;SDS011;148;51.480;7.208;2022-08-21T17:29:06;7.63;;;3.40;;
321;SDS011;148;51.480;7.208;2022-08-21T17:31:34;4.20;;;2.57;;
321;SDS011;148;51.480;7.208;2022-08-21T17:34:01;6.30;;;2.57;;
321;SDS011;148;51.480;7.208;2022-08-21T17:36:28;17.03;;;3.30;;
321;SDS011;148;51.480;7.208;2022-08-21T17:38:55;4.27;;;2.40;;
321;SDS011;148;51.480;7.208;2022-08-21T17:41:22;7.83;;;3.40;;
321;SDS011;148;51.480;7.208;2022-08-21T17:43:49;5.80;;;2.90;;
321;SDS011;148;51.480;7.208;2022-08-21T17:46:26;4.03;;;2.80;;
321;SDS011;148;51.480;7.208;2022-08-21T17:48:52;4.83;;;2.90;;
321;SDS011;148;51.480;7.208;2022-08-21T17:51:19;4.30;;;3.03;;
321;SDS011;148;51.480;7.208;2022-08-21T17:53:44;7.67;;;2.63;;
321;SDS011;148;51.480;7.208;2022-08-21T17:56:14;3.83;;;2.50;;
321;SDS011;148;51.480;7.208;2022-08-21T17:58:43;5.73;;;2.70;;
321;SDS011;148;51.480;7.208;2022-08-21T18:01:12;4.50;;;2.43;;
321;SDS011;148;51.480;7.208;2022-08-21T18:03:38;9.00;;;3.17;;
321;SDS011;148;51.480;7.208;2022-08-21T18:06:04;3.40;;;2.63;;
321;SDS011;148;51.480;7.208;2022-08-21T18:08:31;5.20;;;2.67;;
321;SDS011;148;51.480;7.208;2022-08-21T18:10:57;6.23;;;2.80;;
321;SDS011;148;51.480;7.208;2022-08-21T18:13:25;3.90;;;2.63;;
321;SDS011;148;51.480;7.208;2022-08-21T18:15:53;6.23;;;2.87;;
321;SDS011;148;51.480;7.208;2022-08-21T18:18:20;3.20;;;2.60;;
321;SDS011;148;51.480;7.208;2022-08-21T18:20:47;6.07;;;3.20;;
321;SDS011;148;51.480;7.208;2022-08-21T18:23:13;5.73;;;2.40;;
321;SDS011;148;51.480;7.208;2022-08-21T18:25:40;5.40;;;2.60;;
321;SDS011;148;51.480;7.208;2022-08-21T18:28:09;13.03;;;2.60;;
321;SDS011;148;51.480;7.208;2022-08-21T18:30:39;6.80;;;2.37;;
321;SDS011;148;51.480;7.208;2022-08-21T18:33:07;17.83;;;4.13;;
